sensor_id;sensor_type;location;lat;lon;timestamp;P1;durP1;ratioP1;P2;durP2;ratioP2
23684;SDS011;12020;51.384;6.908;2023-04-25T00:00:05;13.25;;;6.53;;
23684;SDS011;12020;51.384;6.908;2023-04-25T00:02:32;10.10;;;5.82;;
23684;SDS011;12020;51.384;6.908;2023-04-25T00:05:00;13.82;;;5.93;;
23684;SDS011;12020;51.384;6.908;2023-04-25T00:07:27;10.57;;;6.03;;
23684;SDS011;12020;51.384;6.908;2023-04-25T00:09:53;11.75;;;5.70;;
23684;SDS011;12020;51.384;6.908;2023-04-25T00:12:19;13.02;;;6.10;;
23684;SDS011;12020;51.384;6.908;2023-04-25T00:14:46;11.32;;;5.45;;
23684;SDS011;12020;51.384;6.908;2023-04-25T00:17:14;11.27;;;5.57;;
23684;SDS011;12020;51.384;6.908;2023-04-25T00:19:42;10.07;;;5.53;;
23684;SDS011;12020;51.384;6.908;2023-04-25T00:22:09;9.48;;;5.45;;
23684;SDS011;12020;51.384;6.908;2023-04-25T00:24:37;9.38;;;5.25;;
23684;SDS011;12020;51.384;6.908;2023-04-25T00:27:04;10.05;;;5.18;;
23684;SDS011;12020;51.384;6.908;2023-04-25T00:32:00;9.52;;;5.07;;
23684;SDS011;12020;51.384;6.908;2023-04-25T00:34:26;10.13;;;5.13;;
23684;SDS011;12020;51.384;6.908;2023-04-25T00:36:52;10.70;;;5.60;;
23684;SDS011;12020;51.384;6.908;2023-04-25T00:39:18;9.32;;;5.45;;
23684;SDS011;12020;51.384;6.908;2023-04-25T00:41:44;11.73;;;5.60;;
23684;SDS011;12020;51.384;6.908;2023-04-25T00:44:10;10.90;;;5.60;;
23684;SDS011;12020;51.384;6.908;2023-04-25T00:46:37;12.85;;;6.00;;
23684;SDS011;12020;51.384;6.908;2023-04-25T00:49:04;10.73;;;5.95;;
23684;SDS011;12020;51.384;6.908;2023-04-25T00:51:30;9.88;;;5.80;;
23684;SDS011;12020;51.384;6.908;2023-04-25T00:53:57;12.10;;;6.13;;
23684;SDS011;12020;51.384;6.908;2023-04-25T00:56:23;12.57;;;6.15;;
23684;SDS011;12020;51.384;6.908;2023-04-25T00:58:49;9.98;;;5.75;;
23684;SDS011;12020;51.384;6.908;2023-04-25T01:01:17;10.93;;;5.70;;
23684;SDS011;12020;51.384;6.908;2023-04-25T01:03:44;9.70;;;6.10;;
23684;SDS011;12020;51.384;6.908;2023-04-25T01:06:11;11.55;;;6.00;;
23684;SDS011;12020;51.384;6.908;2023-04-25T01:08:38;11.93;;;6.18;;
23684;SDS011;12020;51.384;6.908;2023-04-25T01:11:05;10.23;;;5.68;;
23684;SDS011;12020;51.384;6.908;2023-04-25T01:13:32;10.38;;;6.00;;
23684;SDS011;12020;51.384;6.908;2023-04-25T01:15:59;11.50;;;6.17;;
23684;SDS011;12020;51.384;6.908;2023-04-25T01:18:26;10.85;;;5.90;;
23684;SDS011;12020;51.384;6.908;2023-04-25T01:20:52;11.18;;;5.68;;
23684;SDS011;12020;51.384;6.908;2023-04-25T01:23:19;12.00;;;5.88;;
23684;SDS011;12020;51.384;6.908;2023-04-25T01:25:45;9.98;;;5.95;;
23684;SDS011;12020;51.384;6.908;2023-04-25T01:28:12;11.90;;;6.07;;
23684;SDS011;12020;51.384;6.908;2023-04-25T01:30:39;12.88;;;6.10;;
23684;SDS011;12020;51.384;6.908;2023-04-25T01:33:05;10.75;;;5.93;;
23684;SDS011;12020;51.384;6.908;2023-04-25T01:35:33;9.35;;;5.85;;
23684;SDS011;12020;51.384;6.908;2023-04-25T01:38:00;10.43;;;5.83;;
23684;SDS011;12020;51.384;6.908;2023-04-25T01:40:27;9.43;;;5.80;;
23684;SDS011;12020;51.384;6.908;2023-04-25T01:42:54;9.82;;;5.50;;
23684;SDS011;12020;51.384;6.908;2023-04-25T01:45:20;12.30;;;6.03;;
23684;SDS011;12020;51.384;6.908;2023-04-25T01:47:46;10.52;;;5.85;;
23684;SDS011;12020;51.384;6.908;2023-04-25T01:50:14;9.75;;;5.72;;
23684;SDS011;12020;51.384;6.908;2023-04-25T01:52:42;8.03;;;5.43;;
23684;SDS011;12020;51.384;6.908;2023-04-25T01:55:09;11.40;;;5.97;;
23684;SDS011;12020;51.384;6.908;2023-04-25T01:57:35;10.23;;;5.60;;
23684;SDS011;12020;51.384;6.908;2023-04-25T02:00:02;13.88;;;5.97;;
23684;SDS011;12020;51.384;6.908;2023-04-25T02:02:29;9.35;;;5.93;;
23684;SDS011;12020;51.384;6.908;2023-04-25T02:04:56;11.75;;;5.97;;
23684;SDS011;12020;51.384;6.908;2023-04-25T02:07:22;10.80;;;6.03;;
23684;SDS011;12020;51.384;6.908;2023-04-25T02:09:48;11.13;;;5.95;;
23684;SDS011;12020;51.384;6.908;2023-04-25T02:12:14;9.15;;;5.50;;
23684;SDS011;12020;51.384;6.908;2023-04-25T02:14:40;10.88;;;5.50;;
23684;SDS011;12020;51.384;6.908;2023-04-25T02:17:05;11.90;;;6.10;;
23684;SDS011;12020;51.384;6.908;2023-04-25T02:19:31;9.93;;;6.05;;
23684;SDS011;12020;51.384;6.908;2023-04-25T02:21:58;11.50;;;6.15;;
23684;SDS011;12020;51.384;6.908;2023-04-25T02:24:23;10.30;;;5.63;;
23684;SDS011;12020;51.384;6.908;2023-04-25T02:26:49;10.57;;;5.78;;
23684;SDS011;12020;51.384;6.908;2023-04-25T02:29:15;9.93;;;5.93;;
23684;SDS011;12020;51.384;6.908;2023-04-25T02:31:42;11.52;;;6.22;;
23684;SDS011;12020;51.384;6.908;2023-04-25T02:34:07;11.38;;;6.05;;
23684;SDS011;12020;51.384;6.908;2023-04-25T02:36:33;11.60;;;6.28;;
23684;SDS011;12020;51.384;6.908;2023-04-25T02:39:00;7.93;;;5.80;;
23684;SDS011;12020;51.384;6.908;2023-04-25T02:41:27;12.75;;;6.25;;
23684;SDS011;12020;51.384;6.908;2023-04-25T02:43:53;12.83;;;6.47;;
23684;SDS011;12020;51.384;6.908;2023-04-25T02:46:19;12.20;;;6.43;;
23684;SDS011;12020;51.384;6.908;2023-04-25T02:48:46;10.32;;;5.78;;
23684;SDS011;12020;51.384;6.908;2023-04-25T02:51:12;12.02;;;6.55;;
23684;SDS011;12020;51.384;6.908;2023-04-25T02:53:38;12.20;;;6.80;;
23684;SDS011;12020;51.384;6.908;2023-04-25T02:56:04;12.00;;;6.50;;
23684;SDS011;12020;51.384;6.908;2023-04-25T02:58:31;13.10;;;6.50;;
23684;SDS011;12020;51.384;6.908;2023-04-25T03:00:57;10.85;;;6.55;;
23684;SDS011;12020;51.384;6.908;2023-04-25T03:03:23;11.23;;;6.33;;
23684;SDS011;12020;51.384;6.908;2023-04-25T03:05:49;10.27;;;6.00;;
23684;SDS011;12020;51.384;6.908;2023-04-25T03:08:16;11.57;;;6.10;;
23684;SDS011;12020;51.384;6.908;2023-04-25T03:10:43;11.23;;;6.13;;
23684;SDS011;12020;51.384;6.908;2023-04-25T03:13:09;10.68;;;5.72;;
23684;SDS011;12020;51.384;6.908;2023-04-25T03:15:35;12.97;;;6.40;;
23684;SDS011;12020;51.384;6.908;2023-04-25T03:18:02;11.23;;;6.25;;
23684;SDS011;12020;51.384;6.908;2023-04-25T03:20:28;11.48;;;5.63;;
23684;SDS011;12020;51.384;6.908;2023-04-25T03:22:56;11.13;;;5.85;;
23684;SDS011;12020;51.384;6.908;2023-04-25T03:25:22;11.80;;;6.10;;
23684;SDS011;12020;51.384;6.908;2023-04-25T03:27:48;12.38;;;6.18;;
23684;SDS011;12020;51.384;6.908;2023-04-25T03:30:14;12.23;;;6.07;;
23684;SDS011;12020;51.384;6.908;2023-04-25T03:32:40;14.98;;;6.25;;
23684;SDS011;12020;51.384;6.908;2023-04-25T03:35:07;11.57;;;6.00;;
23684;SDS011;12020;51.384;6.908;2023-04-25T03:37:33;13.00;;;6.22;;
23684;SDS011;12020;51.384;6.908;2023-04-25T03:39:59;15.38;;;5.82;;
23684;SDS011;12020;51.384;6.908;2023-04-25T03:42:26;14.75;;;6.82;;
23684;SDS011;12020;51.384;6.908;2023-04-25T03:44:51;14.63;;;5.83;;
23684;SDS011;12020;51.384;6.908;2023-04-25T03:47:18;12.35;;;6.50;;
23684;SDS011;12020;51.384;6.908;2023-04-25T03:49:44;13.00;;;6.50;;
23684;SDS011;12020;51.384;6.908;2023-04-25T03:52:10;12.40;;;6.63;;
23684;SDS011;12020;51.384;6.908;2023-04-25T03:54:37;13.10;;;6.93;;
23684;SDS011;12020;51.384;6.908;2023-04-25T03:57:04;14.52;;;7.20;;
23684;SDS011;12020;51.384;6.908;2023-04-25T03:59:31;15.32;;;7.07;;
23684;SDS011;12020;51.384;6.908;2023-04-25T04:01:57;15.38;;;7.88;;
23684;SDS011;12020;51.384;6.908;2023-04-25T04:04:23;16.80;;;7.95;;
23684;SDS011;12020;51.384;6.908;2023-04-25T04:06:49;16.00;;;8.15;;
23684;SDS011;12020;51.384;6.908;2023-04-25T04:09:15;17.48;;;8.73;;
23684;SDS011;12020;51.384;6.908;2023-04-25T04:11:41;16.42;;;8.48;;
23684;SDS011;12020;51.384;6.908;2023-04-25T04:14:07;19.48;;;9.35;;
23684;SDS011;12020;51.384;6.908;2023-04-25T04:16:34;17.23;;;8.15;;
23684;SDS011;12020;51.384;6.908;2023-04-25T04:19:01;14.70;;;7.88;;
23684;SDS011;12020;51.384;6.908;2023-04-25T04:21:27;17.20;;;7.90;;
23684;SDS011;12020;51.384;6.908;2023-04-25T04:23:53;15.20;;;7.50;;
23684;SDS011;12020;51.384;6.908;2023-04-25T04:26:20;18.07;;;7.97;;
23684;SDS011;12020;51.384;6.908;2023-04-25T04:28:49;13.65;;;7.22;;
23684;SDS011;12020;51.384;6.908;2023-04-25T04:31:17;16.13;;;7.50;;
23684;SDS011;12020;51.384;6.908;2023-04-25T04:33:44;18.05;;;7.88;;
23684;SDS011;12020;51.384;6.908;2023-04-25T04:36:11;19.57;;;8.03;;
23684;SDS011;12020;51.384;6.908;2023-04-25T04:38:37;19.17;;;7.90;;
23684;SDS011;12020;51.384;6.908;2023-04-25T04:41:03;17.80;;;7.75;;
23684;SDS011;12020;51.384;6.908;2023-04-25T04:43:29;18.65;;;7.85;;
23684;SDS011;12020;51.384;6.908;2023-04-25T04:45:55;17.27;;;8.35;;
23684;SDS011;12020;51.384;6.908;2023-04-25T04:48:21;18.38;;;7.97;;
23684;SDS011;12020;51.384;6.908;2023-04-25T04:50:48;15.75;;;7.47;;
23684;SDS011;12020;51.384;6.908;2023-04-25T04:53:13;15.63;;;7.88;;
23684;SDS011;12020;51.384;6.908;2023-04-25T04:55:41;18.60;;;7.93;;
23684;SDS011;12020;51.384;6.908;2023-04-25T04:58:07;17.00;;;7.43;;
23684;SDS011;12020;51.384;6.908;2023-04-25T05:00:33;17.27;;;7.95;;
23684;SDS011;12020;51.384;6.908;2023-04-25T05:02:59;18.40;;;7.55;;
23684;SDS011;12020;51.384;6.908;2023-04-25T05:05:26;16.70;;;7.63;;
23684;SDS011;12020;51.384;6.908;2023-04-25T05:07:52;15.35;;;7.22;;
23684;SDS011;12020;51.384;6.908;2023-04-25T05:10:18;12.73;;;7.03;;
23684;SDS011;12020;51.384;6.908;2023-04-25T05:12:45;18.63;;;7.70;;
23684;SDS011;12020;51.384;6.908;2023-04-25T05:15:10;19.05;;;7.38;;
23684;SDS011;12020;51.384;6.908;2023-04-25T05:17:36;17.30;;;6.97;;
23684;SDS011;12020;51.384;6.908;2023-04-25T05:20:03;14.00;;;7.00;;
23684;SDS011;12020;51.384;6.908;2023-04-25T05:22:32;18.58;;;7.18;;
23684;SDS011;12020;51.384;6.908;2023-04-25T05:24:58;14.98;;;7.05;;
23684;SDS011;12020;51.384;6.908;2023-04-25T05:27:24;15.90;;;6.78;;
23684;SDS011;12020;51.384;6.908;2023-04-25T05:29:50;17.42;;;7.25;;
23684;SDS011;12020;51.384;6.908;2023-04-25T05:32:16;16.10;;;6.90;;
23684;SDS011;12020;51.384;6.908;2023-04-25T05:34:44;14.32;;;7.05;;
23684;SDS011;12020;51.384;6.908;2023-04-25T05:37:17;15.50;;;7.22;;
23684;SDS011;12020;51.384;6.908;2023-04-25T05:39:43;17.83;;;7.35;;
23684;SDS011;12020;51.384;6.908;2023-04-25T05:42:09;16.47;;;7.40;;
23684;SDS011;12020;51.384;6.908;2023-04-25T05:44:35;15.10;;;7.53;;
23684;SDS011;12020;51.384;6.908;2023-04-25T05:47:01;15.98;;;7.07;;
23684;SDS011;12020;51.384;6.908;2023-04-25T05:49:26;13.23;;;7.18;;
23684;SDS011;12020;51.384;6.908;2023-04-25T05:51:53;14.27;;;6.60;;
23684;SDS011;12020;51.384;6.908;2023-04-25T05:54:19;16.58;;;7.15;;
23684;SDS011;12020;51.384;6.908;2023-04-25T05:56:45;14.10;;;7.23;;
23684;SDS011;12020;51.384;6.908;2023-04-25T05:59:11;14.90;;;7.50;;
23684;SDS011;12020;51.384;6.908;2023-04-25T06:01:37;14.95;;;7.13;;
23684;SDS011;12020;51.384;6.908;2023-04-25T06:04:03;15.10;;;7.18;;
23684;SDS011;12020;51.384;6.908;2023-04-25T06:06:29;16.80;;;7.23;;
23684;SDS011;12020;51.384;6.908;2023-04-25T06:08:55;14.95;;;7.50;;
23684;SDS011;12020;51.384;6.908;2023-04-25T06:11:21;17.45;;;7.68;;
23684;SDS011;12020;51.384;6.908;2023-04-25T06:13:47;14.27;;;7.50;;
23684;SDS011;12020;51.384;6.908;2023-04-25T06:16:13;14.23;;;7.57;;
23684;SDS011;12020;51.384;6.908;2023-04-25T06:18:38;14.15;;;7.32;;
23684;SDS011;12020;51.384;6.908;2023-04-25T06:21:04;16.50;;;8.00;;
23684;SDS011;12020;51.384;6.908;2023-04-25T06:23:29;14.93;;;7.10;;
23684;SDS011;12020;51.384;6.908;2023-04-25T06:25:56;16.52;;;7.28;;
23684;SDS011;12020;51.384;6.908;2023-04-25T06:28:21;16.10;;;7.25;;
23684;SDS011;12020;51.384;6.908;2023-04-25T06:30:48;14.63;;;7.57;;
23684;SDS011;12020;51.384;6.908;2023-04-25T06:33:15;15.57;;;7.32;;
23684;SDS011;12020;51.384;6.908;2023-04-25T06:35:40;16.10;;;7.22;;
23684;SDS011;12020;51.384;6.908;2023-04-25T06:38:06;17.55;;;7.50;;
23684;SDS011;12020;51.384;6.908;2023-04-25T06:40:33;17.17;;;7.53;;
23684;SDS011;12020;51.384;6.908;2023-04-25T06:42:59;16.55;;;8.43;;
23684;SDS011;12020;51.384;6.908;2023-04-25T06:45:26;15.43;;;8.68;;
23684;SDS011;12020;51.384;6.908;2023-04-25T06:47:52;17.52;;;8.45;;
23684;SDS011;12020;51.384;6.908;2023-04-25T06:50:17;17.33;;;6.25;;
23684;SDS011;12020;51.384;6.908;2023-04-25T06:52:44;14.00;;;5.80;;
23684;SDS011;12020;51.384;6.908;2023-04-25T06:55:10;14.60;;;4.90;;
23684;SDS011;12020;51.384;6.908;2023-04-25T06:57:35;9.43;;;4.53;;
23684;SDS011;12020;51.384;6.908;2023-04-25T07:00:02;9.82;;;4.60;;
23684;SDS011;12020;51.384;6.908;2023-04-25T07:02:30;14.90;;;4.85;;
23684;SDS011;12020;51.384;6.908;2023-04-25T07:04:56;12.48;;;4.40;;
23684;SDS011;12020;51.384;6.908;2023-04-25T07:07:24;11.88;;;4.70;;
23684;SDS011;12020;51.384;6.908;2023-04-25T07:09:51;11.55;;;4.60;;
23684;SDS011;12020;51.384;6.908;2023-04-25T07:12:17;14.80;;;8.30;;
23684;SDS011;12020;51.384;6.908;2023-04-25T07:14:43;18.23;;;10.23;;
23684;SDS011;12020;51.384;6.908;2023-04-25T07:17:09;14.40;;;7.30;;
23684;SDS011;12020;51.384;6.908;2023-04-25T07:19:35;13.10;;;7.18;;
23684;SDS011;12020;51.384;6.908;2023-04-25T07:22:03;14.02;;;6.22;;
23684;SDS011;12020;51.384;6.908;2023-04-25T07:24:28;10.00;;;4.70;;
23684;SDS011;12020;51.384;6.908;2023-04-25T07:26:56;8.95;;;4.80;;
23684;SDS011;12020;51.384;6.908;2023-04-25T07:29:21;9.90;;;4.53;;
23684;SDS011;12020;51.384;6.908;2023-04-25T07:31:47;9.73;;;4.20;;
23684;SDS011;12020;51.384;6.908;2023-04-25T07:34:14;10.55;;;4.35;;
23684;SDS011;12020;51.384;6.908;2023-04-25T07:36:40;12.18;;;4.25;;
23684;SDS011;12020;51.384;6.908;2023-04-25T07:39:06;9.38;;;4.20;;
23684;SDS011;12020;51.384;6.908;2023-04-25T07:41:34;11.63;;;4.60;;
23684;SDS011;12020;51.384;6.908;2023-04-25T07:44:00;9.90;;;4.55;;
23684;SDS011;12020;51.384;6.908;2023-04-25T07:46:26;10.30;;;3.92;;
23684;SDS011;12020;51.384;6.908;2023-04-25T07:48:52;9.80;;;4.28;;
23684;SDS011;12020;51.384;6.908;2023-04-25T07:51:18;10.27;;;4.57;;
23684;SDS011;12020;51.384;6.908;2023-04-25T07:53:45;8.95;;;3.85;;
23684;SDS011;12020;51.384;6.908;2023-04-25T07:56:11;9.02;;;3.80;;
23684;SDS011;12020;51.384;6.908;2023-04-25T07:58:37;8.70;;;3.72;;
23684;SDS011;12020;51.384;6.908;2023-04-25T08:01:03;7.93;;;3.60;;
23684;SDS011;12020;51.384;6.908;2023-04-25T08:03:29;8.77;;;3.50;;
23684;SDS011;12020;51.384;6.908;2023-04-25T08:05:57;9.70;;;3.50;;
23684;SDS011;12020;51.384;6.908;2023-04-25T08:08:22;8.85;;;3.72;;
23684;SDS011;12020;51.384;6.908;2023-04-25T08:10:48;9.88;;;3.50;;
23684;SDS011;12020;51.384;6.908;2023-04-25T08:13:14;8.88;;;3.55;;
23684;SDS011;12020;51.384;6.908;2023-04-25T08:15:40;10.53;;;3.17;;
23684;SDS011;12020;51.384;6.908;2023-04-25T08:18:06;9.43;;;3.63;;
23684;SDS011;12020;51.384;6.908;2023-04-25T08:20:32;8.48;;;2.75;;
23684;SDS011;12020;51.384;6.908;2023-04-25T08:22:59;8.73;;;3.00;;
23684;SDS011;12020;51.384;6.908;2023-04-25T08:25:25;9.60;;;3.42;;
23684;SDS011;12020;51.384;6.908;2023-04-25T08:30:22;7.97;;;2.90;;
23684;SDS011;12020;51.384;6.908;2023-04-25T08:32:47;8.30;;;2.97;;
23684;SDS011;12020;51.384;6.908;2023-04-25T08:35:15;9.13;;;3.25;;
23684;SDS011;12020;51.384;6.908;2023-04-25T08:37:42;7.10;;;2.70;;
23684;SDS011;12020;51.384;6.908;2023-04-25T08:40:09;7.50;;;2.60;;
23684;SDS011;12020;51.384;6.908;2023-04-25T08:42:41;9.33;;;3.00;;
23684;SDS011;12020;51.384;6.908;2023-04-25T08:45:08;8.02;;;3.15;;
23684;SDS011;12020;51.384;6.908;2023-04-25T08:47:35;10.73;;;3.42;;
23684;SDS011;12020;51.384;6.908;2023-04-25T08:50:03;10.05;;;3.10;;
23684;SDS011;12020;51.384;6.908;2023-04-25T08:52:32;9.20;;;3.00;;
23684;SDS011;12020;51.384;6.908;2023-04-25T08:55:13;8.60;;;3.25;;
23684;SDS011;12020;51.384;6.908;2023-04-25T08:57:40;8.50;;;2.83;;
23684;SDS011;12020;51.384;6.908;2023-04-25T09:00:09;9.43;;;3.00;;
23684;SDS011;12020;51.384;6.908;2023-04-25T09:02:35;8.60;;;2.97;;
23684;SDS011;12020;51.384;6.908;2023-04-25T09:05:02;7.43;;;2.45;;
23684;SDS011;12020;51.384;6.908;2023-04-25T09:07:32;10.05;;;2.90;;
23684;SDS011;12020;51.384;6.908;2023-04-25T09:09:57;6.80;;;2.30;;
23684;SDS011;12020;51.384;6.908;2023-04-25T09:12:27;6.65;;;2.40;;
23684;SDS011;12020;51.384;6.908;2023-04-25T09:17:35;6.57;;;2.50;;
23684;SDS011;12020;51.384;6.908;2023-04-25T09:20:05;9.60;;;2.50;;
23684;SDS011;12020;51.384;6.908;2023-04-25T09:22:36;8.85;;;2.60;;
23684;SDS011;12020;51.384;6.908;2023-04-25T09:25:04;8.10;;;2.50;;
23684;SDS011;12020;51.384;6.908;2023-04-25T09:27:42;10.32;;;2.67;;
23684;SDS011;12020;51.384;6.908;2023-04-25T09:30:18;6.07;;;2.20;;
23684;SDS011;12020;51.384;6.908;2023-04-25T09:32:55;8.55;;;2.30;;
23684;SDS011;12020;51.384;6.908;2023-04-25T09:35:24;9.30;;;2.30;;
23684;SDS011;12020;51.384;6.908;2023-04-25T09:37:53;7.97;;;2.80;;
23684;SDS011;12020;51.384;6.908;2023-04-25T09:40:20;7.18;;;2.42;;
23684;SDS011;12020;51.384;6.908;2023-04-25T09:42:55;7.85;;;2.45;;
23684;SDS011;12020;51.384;6.908;2023-04-25T09:45:22;6.97;;;2.55;;
23684;SDS011;12020;51.384;6.908;2023-04-25T09:47:49;6.95;;;2.40;;
23684;SDS011;12020;51.384;6.908;2023-04-25T09:50:17;5.32;;;2.17;;
23684;SDS011;12020;51.384;6.908;2023-04-25T09:52:45;6.88;;;2.38;;
23684;SDS011;12020;51.384;6.908;2023-04-25T09:55:29;7.40;;;2.33;;
23684;SDS011;12020;51.384;6.908;2023-04-25T09:57:56;8.38;;;2.72;;
23684;SDS011;12020;51.384;6.908;2023-04-25T10:00:29;6.15;;;2.70;;
23684;SDS011;12020;51.384;6.908;2023-04-25T10:02:56;8.63;;;2.67;;
23684;SDS011;12020;51.384;6.908;2023-04-25T10:05:24;5.15;;;2.25;;
23684;SDS011;12020;51.384;6.908;2023-04-25T10:07:51;6.53;;;2.33;;
23684;SDS011;12020;51.384;6.908;2023-04-25T10:10:17;6.63;;;2.47;;
23684;SDS011;12020;51.384;6.908;2023-04-25T10:12:45;7.05;;;2.33;;
23684;SDS011;12020;51.384;6.908;2023-04-25T10:15:11;7.10;;;2.60;;
23684;SDS011;12020;51.384;6.908;2023-04-25T10:17:38;6.50;;;2.45;;
23684;SDS011;12020;51.384;6.908;2023-04-25T10:20:05;6.47;;;2.40;;
23684;SDS011;12020;51.384;6.908;2023-04-25T10:22:37;7.57;;;2.33;;
23684;SDS011;12020;51.384;6.908;2023-04-25T10:25:06;5.55;;;2.03;;
23684;SDS011;12020;51.384;6.908;2023-04-25T10:27:34;4.68;;;1.60;;
23684;SDS011;12020;51.384;6.908;2023-04-25T10:32:36;4.35;;;1.50;;
23684;SDS011;12020;51.384;6.908;2023-04-25T10:35:10;5.03;;;1.60;;
23684;SDS011;12020;51.384;6.908;2023-04-25T10:37:58;4.90;;;1.95;;
23684;SDS011;12020;51.384;6.908;2023-04-25T10:40:31;6.15;;;2.08;;
23684;SDS011;12020;51.384;6.908;2023-04-25T10:46:02;5.00;;;1.90;;
23684;SDS011;12020;51.384;6.908;2023-04-25T10:48:45;5.10;;;1.83;;
23684;SDS011;12020;51.384;6.908;2023-04-25T10:56:33;5.70;;;2.20;;
23684;SDS011;12020;51.384;6.908;2023-04-25T10:59:16;4.77;;;1.90;;
23684;SDS011;12020;51.384;6.908;2023-04-25T11:01:44;4.37;;;1.80;;
23684;SDS011;12020;51.384;6.908;2023-04-25T11:09:34;4.75;;;1.90;;
23684;SDS011;12020;51.384;6.908;2023-04-25T11:12:03;4.95;;;1.77;;
23684;SDS011;12020;51.384;6.908;2023-04-25T11:14:30;5.38;;;1.92;;
23684;SDS011;12020;51.384;6.908;2023-04-25T11:16:57;5.78;;;1.85;;
23684;SDS011;12020;51.384;6.908;2023-04-25T11:19:24;5.18;;;1.65;;
23684;SDS011;12020;51.384;6.908;2023-04-25T11:21:54;5.40;;;1.90;;
23684;SDS011;12020;51.384;6.908;2023-04-25T11:26:54;4.97;;;1.73;;
23684;SDS011;12020;51.384;6.908;2023-04-25T11:29:23;4.65;;;1.80;;
23684;SDS011;12020;51.384;6.908;2023-04-25T11:31:52;5.32;;;1.80;;
23684;SDS011;12020;51.384;6.908;2023-04-25T11:34:19;5.38;;;1.90;;
23684;SDS011;12020;51.384;6.908;2023-04-25T11:36:45;6.63;;;1.80;;
23684;SDS011;12020;51.384;6.908;2023-04-25T11:39:11;6.03;;;2.30;;
23684;SDS011;12020;51.384;6.908;2023-04-25T11:41:38;5.43;;;1.90;;
23684;SDS011;12020;51.384;6.908;2023-04-25T11:44:04;5.32;;;1.83;;
23684;SDS011;12020;51.384;6.908;2023-04-25T11:46:30;6.03;;;2.20;;
23684;SDS011;12020;51.384;6.908;2023-04-25T11:48:58;5.47;;;2.05;;
23684;SDS011;12020;51.384;6.908;2023-04-25T11:51:25;7.07;;;2.00;;
23684;SDS011;12020;51.384;6.908;2023-04-25T11:53:51;7.13;;;2.17;;
23684;SDS011;12020;51.384;6.908;2023-04-25T11:56:17;5.53;;;1.92;;
23684;SDS011;12020;51.384;6.908;2023-04-25T11:58:56;5.80;;;1.90;;
23684;SDS011;12020;51.384;6.908;2023-04-25T12:01:29;5.83;;;2.33;;
23684;SDS011;12020;51.384;6.908;2023-04-25T12:03:57;5.47;;;2.50;;
23684;SDS011;12020;51.384;6.908;2023-04-25T12:06:30;7.00;;;2.50;;
23684;SDS011;12020;51.384;6.908;2023-04-25T12:09:03;4.38;;;2.20;;
23684;SDS011;12020;51.384;6.908;2023-04-25T12:11:32;6.85;;;2.53;;
23684;SDS011;12020;51.384;6.908;2023-04-25T12:14:06;7.28;;;2.80;;
23684;SDS011;12020;51.384;6.908;2023-04-25T12:16:44;5.78;;;2.88;;
23684;SDS011;12020;51.384;6.908;2023-04-25T12:19:15;8.80;;;3.83;;
23684;SDS011;12020;51.384;6.908;2023-04-25T12:21:42;9.52;;;2.97;;
23684;SDS011;12020;51.384;6.908;2023-04-25T12:26:47;6.10;;;2.43;;
23684;SDS011;12020;51.384;6.908;2023-04-25T12:29:29;5.63;;;2.22;;
23684;SDS011;12020;51.384;6.908;2023-04-25T12:31:59;4.72;;;2.13;;
23684;SDS011;12020;51.384;6.908;2023-04-25T12:34:27;5.03;;;2.08;;
23684;SDS011;12020;51.384;6.908;2023-04-25T12:36:53;5.43;;;2.10;;
23684;SDS011;12020;51.384;6.908;2023-04-25T12:39:20;5.30;;;2.17;;
23684;SDS011;12020;51.384;6.908;2023-04-25T12:41:47;5.60;;;2.28;;
23684;SDS011;12020;51.384;6.908;2023-04-25T12:44:15;5.22;;;2.10;;
23684;SDS011;12020;51.384;6.908;2023-04-25T12:46:42;5.60;;;2.65;;
23684;SDS011;12020;51.384;6.908;2023-04-25T12:49:08;5.90;;;2.50;;
23684;SDS011;12020;51.384;6.908;2023-04-25T12:51:35;6.63;;;2.35;;
23684;SDS011;12020;51.384;6.908;2023-04-25T12:54:01;4.55;;;2.20;;
23684;SDS011;12020;51.384;6.908;2023-04-25T12:56:30;6.38;;;2.42;;
23684;SDS011;12020;51.384;6.908;2023-04-25T12:58:56;7.23;;;2.30;;
23684;SDS011;12020;51.384;6.908;2023-04-25T13:01:22;4.65;;;1.80;;
23684;SDS011;12020;51.384;6.908;2023-04-25T13:03:48;6.13;;;1.95;;
23684;SDS011;12020;51.384;6.908;2023-04-25T13:06:15;4.55;;;1.58;;
23684;SDS011;12020;51.384;6.908;2023-04-25T13:08:42;3.15;;;1.50;;
23684;SDS011;12020;51.384;6.908;2023-04-25T13:11:08;4.30;;;1.60;;
23684;SDS011;12020;51.384;6.908;2023-04-25T13:13:34;4.13;;;1.50;;
23684;SDS011;12020;51.384;6.908;2023-04-25T13:16:01;4.28;;;1.80;;
23684;SDS011;12020;51.384;6.908;2023-04-25T13:18:27;5.35;;;1.70;;
23684;SDS011;12020;51.384;6.908;2023-04-25T13:20:54;4.55;;;1.95;;
23684;SDS011;12020;51.384;6.908;2023-04-25T13:23:20;4.75;;;1.90;;
23684;SDS011;12020;51.384;6.908;2023-04-25T13:25:46;7.85;;;2.50;;
23684;SDS011;12020;51.384;6.908;2023-04-25T13:28:13;5.03;;;1.70;;
23684;SDS011;12020;51.384;6.908;2023-04-25T13:30:40;4.38;;;1.80;;
23684;SDS011;12020;51.384;6.908;2023-04-25T13:33:06;4.22;;;1.75;;
23684;SDS011;12020;51.384;6.908;2023-04-25T13:35:32;5.20;;;1.60;;
23684;SDS011;12020;51.384;6.908;2023-04-25T13:37:59;4.75;;;1.95;;
23684;SDS011;12020;51.384;6.908;2023-04-25T13:40:25;5.13;;;1.90;;
23684;SDS011;12020;51.384;6.908;2023-04-25T13:42:52;5.30;;;1.80;;
23684;SDS011;12020;51.384;6.908;2023-04-25T13:45:19;6.07;;;1.90;;
23684;SDS011;12020;51.384;6.908;2023-04-25T13:47:46;5.25;;;1.98;;
23684;SDS011;12020;51.384;6.908;2023-04-25T13:50:12;4.75;;;1.80;;
23684;SDS011;12020;51.384;6.908;2023-04-25T13:52:38;4.97;;;1.88;;
23684;SDS011;12020;51.384;6.908;2023-04-25T13:55:06;4.70;;;1.73;;
23684;SDS011;12020;51.384;6.908;2023-04-25T13:57:34;4.45;;;1.55;;
23684;SDS011;12020;51.384;6.908;2023-04-25T14:00:02;4.97;;;1.92;;
23684;SDS011;12020;51.384;6.908;2023-04-25T14:02:33;6.05;;;1.80;;
23684;SDS011;12020;51.384;6.908;2023-04-25T14:05:07;4.43;;;1.73;;
23684;SDS011;12020;51.384;6.908;2023-04-25T14:07:34;7.07;;;1.80;;
23684;SDS011;12020;51.384;6.908;2023-04-25T14:10:00;4.13;;;2.05;;
23684;SDS011;12020;51.384;6.908;2023-04-25T14:12:26;5.83;;;2.33;;
23684;SDS011;12020;51.384;6.908;2023-04-25T14:14:53;5.50;;;2.40;;
23684;SDS011;12020;51.384;6.908;2023-04-25T14:17:19;4.90;;;2.00;;
23684;SDS011;12020;51.384;6.908;2023-04-25T14:19:44;5.25;;;2.08;;
23684;SDS011;12020;51.384;6.908;2023-04-25T14:22:10;4.43;;;1.70;;
23684;SDS011;12020;51.384;6.908;2023-04-25T14:24:37;5.13;;;1.75;;
23684;SDS011;12020;51.384;6.908;2023-04-25T14:27:03;4.80;;;1.80;;
23684;SDS011;12020;51.384;6.908;2023-04-25T14:29:29;4.90;;;1.70;;
23684;SDS011;12020;51.384;6.908;2023-04-25T14:31:56;4.22;;;1.50;;
23684;SDS011;12020;51.384;6.908;2023-04-25T14:34:23;5.68;;;1.80;;
23684;SDS011;12020;51.384;6.908;2023-04-25T14:36:52;6.73;;;1.70;;
23684;SDS011;12020;51.384;6.908;2023-04-25T14:39:18;6.25;;;2.13;;
23684;SDS011;12020;51.384;6.908;2023-04-25T14:41:44;4.17;;;1.80;;
23684;SDS011;12020;51.384;6.908;2023-04-25T14:44:10;2.72;;;1.40;;
23684;SDS011;12020;51.384;6.908;2023-04-25T14:46:37;3.40;;;1.40;;
23684;SDS011;12020;51.384;6.908;2023-04-25T14:49:03;2.97;;;1.40;;
23684;SDS011;12020;51.384;6.908;2023-04-25T14:51:29;3.25;;;1.30;;
23684;SDS011;12020;51.384;6.908;2023-04-25T14:53:56;3.37;;;1.30;;
23684;SDS011;12020;51.384;6.908;2023-04-25T14:56:22;3.63;;;1.58;;
23684;SDS011;12020;51.384;6.908;2023-04-25T14:58:48;4.75;;;1.42;;
23684;SDS011;12020;51.384;6.908;2023-04-25T15:01:14;3.40;;;1.45;;
23684;SDS011;12020;51.384;6.908;2023-04-25T15:03:41;4.53;;;1.67;;
23684;SDS011;12020;51.384;6.908;2023-04-25T15:06:07;5.10;;;1.70;;
23684;SDS011;12020;51.384;6.908;2023-04-25T15:08:32;3.30;;;1.60;;